Time;durP1;ratioP1;P1;durP2;ratioP2;P2;SDS_P1;SDS_P2;PMS_P1;PMS_P2;Temp;Humidity;BMP_temperature;BMP_pressure;BME280_temperature;BME280_humidity;BME280_pressure;Samples;Min_cycle;Max_cycle;Signal;HPM_P1;HPM_P2
2022/05/22 00:00:45;;;;;;;4.43;3.40;;;13.50;99.90;;;;;;4998618;28;20479;-72
2022/05/22 00:03:12;;;;;;;5.83;3.40;;;13.50;99.90;;;;;;4993728;28;20876;-70
2022/05/22 00:05:39;;;;;;;3.10;2.30;;;13.50;99.90;;;;;;4999317;28;20453;-71
2022/05/22 00:08:06;;;;;;;3.60;3.00;;;13.60;99.90;;;;;;4990397;28;20526;-71
2022/05/22 00:10:33;;;;;;;7.90;4.30;;;13.60;99.90;;;;;;4991187;28;20497;-70
2022/05/22 00:13:01;;;;;;;4.80;3.10;;;13.60;99.90;;;;;;4998644;28;20829;-71
2022/05/22 00:15:28;;;;;;;5.20;3.03;;;13.50;99.90;;;;;;5003175;28;20746;-70
2022/05/22 00:17:55;;;;;;;5.47;2.93;;;13.60;99.90;;;;;;5007329;28;22173;-71
2022/05/22 00:20:21;;;;;;;4.73;3.20;;;13.70;99.90;;;;;;5005587;28;20538;-70
2022/05/22 00:22:48;;;;;;;2.73;2.30;;;13.70;99.90;;;;;;5002865;28;20470;-71
2022/05/22 00:25:15;;;;;;;4.67;3.10;;;13.60;99.90;;;;;;4996510;28;20475;-70
2022/05/22 00:27:42;;;;;;;6.03;3.70;;;13.50;99.90;;;;;;4996937;28;20465;-70
2022/05/22 00:30:13;;;;;;;5.87;4.50;;;13.40;99.90;;;;;;4998505;28;21143;-70
2022/05/22 00:32:40;;;;;;;3.67;2.70;;;13.30;99.90;;;;;;5005914;28;20484;-71
2022/05/22 00:35:08;;;;;;;3.70;3.00;;;13.30;99.90;;;;;;4999187;28;20468;-72
2022/05/22 00:37:34;;;;;;;5.40;3.40;;;13.30;99.90;;;;;;4987586;28;20463;-72
2022/05/22 00:40:01;;;;;;;3.50;3.03;;;13.30;99.90;;;;;;4995378;28;20473;-71
2022/05/22 00:42:28;;;;;;;2.80;2.50;;;13.50;99.90;;;;;;4994928;28;21294;-71
2022/05/22 00:44:55;;;;;;;4.87;3.27;;;13.60;99.90;;;;;;4991515;28;20476;-72
2022/05/22 00:47:23;;;;;;;4.83;3.10;;;13.50;99.90;;;;;;4996451;28;20469;-72
2022/05/22 00:49:52;;;;;;;5.43;3.20;;;13.50;99.90;;;;;;4997939;28;20476;-73
2022/05/22 00:52:24;;;;;;;5.53;3.23;;;13.60;99.90;;;;;;4998870;28;20522;-71
2022/05/22 00:54:56;;;;;;;4.30;3.60;;;13.60;99.90;;;;;;4988645;28;20473;-71
2022/05/22 00:57:27;;;;;;;4.93;3.50;;;13.70;99.90;;;;;;4989894;28;20867;-71
2022/05/22 00:59:59;;;;;;;3.47;3.03;;;13.70;99.90;;;;;;4992679;28;20999;-71
2022/05/22 01:03:26;;;;;;;7.13;4.70;;;13.70;99.90;;;;;;4988706;28;20609;-71
2022/05/22 01:05:15;;;;;;;5.30;2.70;;;13.50;99.90;;;;;;4991984;28;20434;-72
2022/05/22 01:07:41;;;;;;;4.30;3.23;;;13.50;99.90;;;;;;4998093;28;20467;-70
2022/05/22 01:10:09;;;;;;;6.63;4.03;;;13.50;99.90;;;;;;4982091;28;20479;-71
2022/05/22 01:12:36;;;;;;;4.23;3.83;;;13.50;99.90;;;;;;4993094;28;20501;-71
2022/05/22 01:15:02;;;;;;;5.03;3.70;;;13.40;99.90;;;;;;4992302;28;20471;-71
2022/05/22 01:17:31;;;;;;;11.90;4.67;;;13.40;99.90;;;;;;4989799;28;20567;-71
2022/05/22 01:20:00;;;;;;;4.20;3.80;;;13.40;99.90;;;;;;4993351;28;20487;-71
2022/05/22 01:22:28;;;;;;;4.93;3.97;;;13.40;99.90;;;;;;4987129;28;20471;-70
2022/05/22 01:24:55;;;;;;;8.63;4.43;;;13.30;99.90;;;;;;4985704;28;20810;-70
2022/05/22 01:27:24;;;;;;;9.93;3.93;;;13.20;99.90;;;;;;4986994;28;20465;-70
2022/05/22 01:29:51;;;;;;;3.53;3.00;;;13.00;99.90;;;;;;4991830;28;20453;-70
2022/05/22 01:32:18;;;;;;;30.33;5.50;;;13.10;99.90;;;;;;4988941;28;20465;-71
2022/05/22 01:34:44;;;;;;;4.37;3.77;;;13.10;99.90;;;;;;4994002;28;21031;-71
2022/05/22 01:37:11;;;;;;;6.20;3.40;;;13.10;99.90;;;;;;4988786;28;21054;-70
2022/05/22 01:39:39;;;;;;;6.37;3.30;;;13.10;99.90;;;;;;4997290;28;20459;-71
2022/05/22 01:42:06;;;;;;;3.67;3.37;;;13.10;99.90;;;;;;4994592;28;20455;-70
2022/05/22 01:44:32;;;;;;;5.97;2.83;;;13.10;99.90;;;;;;4988847;28;20473;-71
2022/05/22 01:46:59;;;;;;;8.83;3.67;;;13.10;99.90;;;;;;4990347;28;20490;-71
2022/05/22 01:49:26;;;;;;;6.80;5.00;;;13.10;99.90;;;;;;4982034;28;21218;-71
2022/05/22 01:51:52;;;;;;;4.07;2.87;;;13.10;99.90;;;;;;4987758;28;20928;-71
2022/05/22 01:54:19;;;;;;;5.77;3.63;;;13.10;99.90;;;;;;4989796;28;20541;-70
2022/05/22 01:56:47;;;;;;;4.00;3.60;;;13.20;99.90;;;;;;4987979;28;20497;-71
2022/05/22 01:59:13;;;;;;;7.70;5.90;;;13.20;99.90;;;;;;4989315;28;20443;-71
2022/05/22 02:01:40;;;;;;;5.03;3.20;;;13.20;99.90;;;;;;4989120;28;20492;-70
2022/05/22 02:04:07;;;;;;;7.83;3.43;;;13.30;99.90;;;;;;4989896;28;20830;-71
2022/05/22 02:06:34;;;;;;;6.53;2.60;;;13.30;99.90;;;;;;4988536;28;20880;-71
2022/05/22 02:09:00;;;;;;;3.57;3.17;;;13.20;99.90;;;;;;4989064;28;20466;-72
2022/05/22 02:11:27;;;;;;;6.60;3.67;;;13.10;99.90;;;;;;4994132;28;20539;-72
2022/05/22 02:13:55;;;;;;;5.17;3.80;;;13.10;99.90;;;;;;4990678;28;20199;-71
2022/05/22 02:16:21;;;;;;;7.57;5.00;;;13.10;99.90;;;;;;4995053;28;20471;-70
2022/05/22 02:18:48;;;;;;;4.20;3.90;;;13.00;99.90;;;;;;4990114;28;20516;-72
2022/05/22 02:21:15;;;;;;;7.30;4.50;;;12.80;99.90;;;;;;4988351;28;20486;-71
2022/05/22 02:23:41;;;;;;;4.70;3.10;;;12.80;99.90;;;;;;4990047;28;20469;-71
2022/05/22 02:26:10;;;;;;;4.63;3.63;;;12.70;99.90;;;;;;4988948;28;20518;-72
2022/05/22 02:28:38;;;;;;;5.03;3.03;;;12.70;99.90;;;;;;4989316;28;20467;-72
2022/05/22 02:31:07;;;;;;;5.90;3.27;;;12.70;99.90;;;;;;4983152;28;20581;-70
2022/05/22 02:33:34;;;;;;;7.13;3.27;;;12.70;99.90;;;;;;4985919;28;24652;-71
2022/05/22 02:36:03;;;;;;;4.50;3.30;;;12.60;99.90;;;;;;4991283;28;20574;-70
2022/05/22 02:38:30;;;;;;;4.73;4.33;;;12.60;99.90;;;;;;4990585;28;21092;-70
2022/05/22 02:40:57;;;;;;;6.60;3.50;;;12.60;99.90;;;;;;4987153;28;20491;-71
2022/05/22 02:43:23;;;;;;;6.23;3.93;;;12.70;99.90;;;;;;4994656;28;20486;-70
2022/05/22 02:45:51;;;;;;;3.33;3.07;;;12.60;99.90;;;;;;4994611;28;20460;-71
2022/05/22 02:48:19;;;;;;;3.97;3.40;;;12.60;99.90;;;;;;4990413;28;21136;-71
2022/05/22 02:50:46;;;;;;;10.70;3.77;;;12.60;99.90;;;;;;4987372;28;20483;-71
2022/05/22 02:53:13;;;;;;;15.33;5.23;;;12.50;99.90;;;;;;4990860;28;20513;-70
2022/05/22 02:55:41;;;;;;;5.00;3.73;;;12.50;99.90;;;;;;4989570;28;20444;-71
2022/05/22 02:58:08;;;;;;;3.57;2.43;;;12.50;99.90;;;;;;4990514;28;20546;-71
2022/05/22 03:00:35;;;;;;;4.20;3.67;;;12.50;99.90;;;;;;4984969;28;20484;-71
2022/05/22 03:03:01;;;;;;;7.93;4.13;;;12.40;99.90;;;;;;4987463;28;21223;-71
2022/05/22 03:06:37;;;;;;;5.00;3.77;;;12.50;99.90;;;;;;4988859;28;20464;-71
2022/05/22 03:08:17;;;;;;;5.40;2.60;;;12.40;99.90;;;;;;4988642;28;20602;-71
2022/05/22 03:10:44;;;;;;;5.27;3.77;;;12.50;99.90;;;;;;4993044;28;20545;-71
2022/05/22 03:13:11;;;;;;;4.57;3.60;;;12.50;99.90;;;;;;4994348;28;20489;-71
2022/05/22 03:15:38;;;;;;;6.17;4.10;;;12.50;99.90;;;;;;4988695;28;20468;-71
2022/05/22 03:18:05;;;;;;;5.87;3.03;;;12.60;99.90;;;;;;4986192;28;20530;-70
2022/05/22 03:20:33;;;;;;;4.67;3.87;;;12.70;99.90;;;;;;4990118;28;20484;-71
2022/05/22 03:23:00;;;;;;;6.73;4.50;;;12.60;99.90;;;;;;4993247;28;20435;-70
2022/05/22 03:25:27;;;;;;;3.67;3.37;;;12.70;99.90;;;;;;4990611;28;21002;-71
2022/05/22 03:27:53;;;;;;;9.47;3.50;;;12.70;99.90;;;;;;4992242;28;20514;-71
2022/05/22 03:30:20;;;;;;;4.07;3.20;;;12.70;99.90;;;;;;4984688;28;21017;-70
2022/05/22 03:32:47;;;;;;;4.47;3.60;;;12.70;99.90;;;;;;4993029;28;20485;-70
2022/05/22 03:35:14;;;;;;;5.40;3.80;;;12.70;99.90;;;;;;4993196;28;20574;-71
2022/05/22 03:37:42;;;;;;;6.53;3.40;;;12.70;99.90;;;;;;4991857;28;20544;-70
2022/05/22 03:40:09;;;;;;;4.90;3.90;;;12.70;99.90;;;;;;4991450;28;20458;-71
2022/05/22 03:42:36;;;;;;;6.03;4.33;;;12.70;99.90;;;;;;5046449;22;20499;-73
2022/05/22 03:45:03;;;;;;;5.60;4.00;;;12.70;99.90;;;;;;5031397;28;20529;-74
2022/05/22 03:47:30;;;;;;;6.60;3.67;;;12.70;99.90;;;;;;5029119;28;20432;-73
2022/05/22 03:49:57;;;;;;;6.83;4.20;;;12.70;99.90;;;;;;5028328;28;20467;-73
2022/05/22 03:52:24;;;;;;;4.87;3.90;;;12.70;99.90;;;;;;5023527;28;21112;-73
2022/05/22 03:54:52;;;;;;;7.57;4.57;;;12.70;99.90;;;;;;5023967;28;20538;-73
2022/05/22 03:57:18;;;;;;;6.37;4.50;;;12.70;99.90;;;;;;5024938;28;20463;-73
2022/05/22 03:59:45;;;;;;;3.57;2.87;;;12.60;99.90;;;;;;5020624;28;20440;-74
2022/05/22 04:02:12;;;;;;;7.13;4.07;;;12.50;99.90;;;;;;5034206;28;20858;-73
2022/05/22 04:04:40;;;;;;;4.20;3.43;;;12.40;99.90;;;;;;5020958;28;20474;-73
2022/05/22 04:07:07;;;;;;;4.50;2.80;;;12.30;99.90;;;;;;5024957;28;20466;-73
2022/05/22 04:09:33;;;;;;;6.67;4.43;;;12.30;99.90;;;;;;5029696;28;20960;-73
2022/05/22 04:12:05;;;;;;;5.03;4.43;;;12.30;99.90;;;;;;5033306;28;20479;-73
2022/05/22 04:14:32;;;;;;;5.23;3.77;;;12.40;99.90;;;;;;5023460;28;20427;-73
2022/05/22 04:16:59;;;;;;;5.43;3.70;;;12.40;99.90;;;;;;5036290;28;20464;-73
2022/05/22 04:19:25;;;;;;;4.67;3.70;;;12.30;99.90;;;;;;5033045;28;20436;-73
2022/05/22 04:21:52;;;;;;;6.20;3.80;;;12.50;99.90;;;;;;5030282;28;20527;-73
2022/05/22 04:27:05;;;;;;;4.97;3.50;;;12.80;99.90;;;;;;5032587;28;20507;-73
2022/05/22 04:29:32;;;;;;;8.23;3.80;;;12.90;99.90;;;;;;5031761;28;20521;-74
2022/05/22 04:31:59;;;;;;;5.20;3.90;;;13.00;99.90;;;;;;5035007;28;20483;-73
2022/05/22 04:34:26;;;;;;;4.63;3.50;;;13.20;99.90;;;;;;5041770;28;20454;-73
2022/05/22 04:36:52;;;;;;;8.20;3.50;;;13.20;99.90;;;;;;5033056;28;20462;-73
2022/05/22 04:39:19;;;;;;;4.70;3.57;;;13.30;99.90;;;;;;5024355;28;20464;-73
2022/05/22 04:41:46;;;;;;;9.47;4.40;;;13.40;99.90;;;;;;5038210;28;20498;-73
2022/05/22 04:44:14;;;;;;;4.77;3.47;;;13.40;99.90;;;;;;5035819;28;20507;-73
2022/05/22 04:46:41;;;;;;;5.10;4.03;;;13.40;99.90;;;;;;5039020;28;20462;-73
2022/05/22 04:49:08;;;;;;;12.30;4.40;;;13.50;99.90;;;;;;5042318;28;20450;-73
2022/05/22 04:51:35;;;;;;;9.30;5.60;;;13.40;99.90;;;;;;5042323;28;20498;-73
2022/05/22 04:54:02;;;;;;;4.70;4.30;;;13.40;99.90;;;;;;5044083;28;20574;-73
2022/05/22 04:56:28;;;;;;;7.63;4.10;;;13.30;99.90;;;;;;5045588;28;20457;-73
2022/05/22 04:58:55;;;;;;;7.10;4.70;;;13.30;99.90;;;;;;5041885;28;20560;-73
2022/05/22 05:01:23;;;;;;;8.53;4.60;;;13.20;99.90;;;;;;5038091;28;20492;-73
2022/05/22 05:03:50;;;;;;;9.20;6.37;;;13.20;99.90;;;;;;5037422;28;21017;-73
2022/05/22 05:06:19;;;;;;;5.43;3.60;;;13.30;99.90;;;;;;5042792;28;20513;-73
2022/05/22 05:08:46;;;;;;;4.20;3.80;;;13.30;99.90;;;;;;5045427;28;20446;-73
2022/05/22 05:11:13;;;;;;;8.63;5.13;;;13.60;99.90;;;;;;5033359;28;20477;-74
2022/05/22 05:13:40;;;;;;;5.50;4.33;;;13.70;99.90;;;;;;5044181;28;20899;-74
2022/05/22 05:16:08;;;;;;;7.73;4.67;;;13.70;99.90;;;;;;5045612;28;20981;-74
2022/05/22 05:18:38;;;;;;;5.70;4.10;;;13.80;99.90;;;;;;5040691;28;20427;-73
2022/05/22 05:21:09;;;;;;;11.43;4.60;;;13.90;99.90;;;;;;5029208;28;20554;-73
2022/05/22 05:23:37;;;;;;;9.00;4.87;;;14.30;99.90;;;;;;5038006;28;20467;-73
2022/05/22 05:26:05;;;;;;;7.23;4.13;;;14.70;99.90;;;;;;5036821;28;20458;-73
2022/05/22 05:28:32;;;;;;;6.37;4.00;;;14.90;99.90;;;;;;5037137;28;20467;-73
2022/05/22 05:31:00;;;;;;;7.00;4.40;;;15.10;99.90;;;;;;5040613;28;20511;-73
2022/05/22 05:33:27;;;;;;;6.63;4.77;;;15.00;99.90;;;;;;5034354;28;20492;-73
2022/05/22 05:35:55;;;;;;;5.00;4.17;;;15.10;99.90;;;;;;5037586;28;20471;-73
2022/05/22 05:38:22;;;;;;;9.80;5.10;;;15.70;99.90;;;;;;5039559;28;20469;-74
2022/05/22 05:40:49;;;;;;;10.47;4.47;;;16.20;99.90;;;;;;5037925;28;20791;-74
2022/05/22 05:43:16;;;;;;;6.90;3.07;;;16.60;99.90;;;;;;5035226;28;20563;-73
2022/05/22 05:45:43;;;;;;;3.40;3.10;;;16.60;99.90;;;;;;5029741;28;20587;-73
2022/05/22 05:48:10;;;;;;;6.13;4.20;;;16.30;99.90;;;;;;5027764;28;20472;-73
2022/05/22 05:50:37;;;;;;;4.80;3.77;;;16.30;99.90;;;;;;5035602;28;20478;-75
2022/05/22 05:53:05;;;;;;;7.20;3.50;;;16.00;99.90;;;;;;5033590;28;20479;-73
2022/05/22 05:55:32;;;;;;;4.60;3.93;;;16.00;99.90;;;;;;5037623;28;20527;-74
2022/05/22 05:58:00;;;;;;;4.17;3.77;;;16.30;99.90;;;;;;5038256;28;20468;-72
2022/05/22 06:00:28;;;;;;;6.97;3.90;;;16.30;99.90;;;;;;5029428;28;20492;-75
2022/05/22 06:02:55;;;;;;;3.67;3.27;;;16.40;99.90;;;;;;5033798;28;20509;-75
2022/05/22 06:05:25;;;;;;;3.70;3.20;;;17.00;99.90;;;;;;5036371;28;20463;-74
2022/05/22 06:07:52;;;;;;;11.67;4.23;;;17.20;99.90;;;;;;5038262;28;20471;-74
2022/05/22 06:10:21;;;;;;;4.73;4.03;;;17.20;99.90;;;;;;5034895;28;20465;-74
2022/05/22 06:12:48;;;;;;;4.87;3.40;;;17.40;99.90;;;;;;5040660;28;20489;-74
2022/05/22 06:15:15;;;;;;;5.00;3.07;;;17.90;99.90;;;;;;5038649;28;20463;-74
2022/05/22 06:17:44;;;;;;;5.23;3.50;;;17.90;99.90;;;;;;5030800;28;20856;-74
2022/05/22 06:20:18;;;;;;;4.07;3.00;;;17.60;99.90;;;;;;5029036;28;20881;-74
2022/05/22 06:22:46;;;;;;;5.30;3.23;;;17.20;99.90;;;;;;5029674;28;20487;-75
2022/05/22 06:25:17;;;;;;;6.07;4.17;;;16.90;99.90;;;;;;5036981;28;20456;-74
2022/05/22 06:27:46;;;;;;;4.33;3.93;;;16.80;99.90;;;;;;5032852;28;20467;-75
2022/05/22 06:30:14;;;;;;;4.93;3.30;;;16.70;99.90;;;;;;5035617;28;20549;-75
2022/05/22 06:32:43;;;;;;;3.47;2.73;;;16.70;99.90;;;;;;5031039;28;20874;-74
2022/05/22 06:35:12;;;;;;;4.90;3.80;;;16.60;99.90;;;;;;5026424;28;20820;-74
2022/05/22 06:37:38;;;;;;;10.03;3.70;;;16.70;99.90;;;;;;5027754;28;20464;-73
2022/05/22 06:40:08;;;;;;;2.97;2.50;;;17.10;99.90;;;;;;5027569;28;20482;-73
2022/05/22 06:42:40;;;;;;;7.67;3.63;;;17.10;99.90;;;;;;5035873;28;20517;-73
2022/05/22 06:45:13;;;;;;;4.27;3.43;;;17.50;99.90;;;;;;5030683;28;20450;-73
2022/05/22 06:47:45;;;;;;;3.63;2.70;;;18.00;99.90;;;;;;5028584;28;21140;-73
2022/05/22 06:50:14;;;;;;;7.23;3.20;;;18.20;99.90;;;;;;5027106;28;20548;-76
2022/05/22 06:52:41;;;;;;;3.60;2.70;;;18.10;99.90;;;;;;5033482;28;21084;-74
2022/05/22 06:55:09;;;;;;;13.67;3.67;;;18.00;99.90;;;;;;5026693;28;20498;-73
2022/05/22 06:57:37;;;;;;;4.97;2.53;;;18.10;99.90;;;;;;5022542;28;20987;-74
2022/05/22 07:00:10;;;;;;;4.00;2.03;;;17.90;99.90;;;;;;5034588;28;21029;-73
2022/05/22 07:02:39;;;;;;;5.23;2.40;;;17.70;99.90;;;;;;5015817;28;20490;-74
2022/05/22 07:05:08;;;;;;;8.00;2.80;;;17.70;99.90;;;;;;5026928;28;20550;-74
2022/05/22 07:07:40;;;;;;;5.83;2.80;;;17.80;99.90;;;;;;5027582;28;20822;-73
2022/05/22 07:10:08;;;;;;;7.93;3.67;;;17.80;99.90;;;;;;5030657;28;20458;-74
2022/05/22 07:12:34;;;;;;;4.40;2.77;;;17.70;99.90;;;;;;5034813;28;20485;-74
2022/05/22 07:15:01;;;;;;;5.20;2.80;;;18.30;99.90;;;;;;5038660;28;20483;-75
2022/05/22 07:17:30;;;;;;;5.03;3.23;;;18.80;99.90;;;;;;5040547;28;20467;-75
2022/05/22 07:19:59;;;;;;;5.90;3.07;;;19.40;99.90;;;;;;5038157;28;20487;-73
2022/05/22 07:22:28;;;;;;;5.47;3.27;;;19.50;99.90;;;;;;5036912;28;20492;-74
2022/05/22 07:24:56;;;;;;;10.33;3.40;;;19.80;99.90;;;;;;5033537;28;20463;-74
2022/05/22 07:27:32;;;;;;;3.67;3.27;;;20.40;99.90;;;;;;5034150;28;20466;-73
2022/05/22 07:30:01;;;;;;;6.73;3.57;;;20.50;99.90;;;;;;5034063;28;20466;-74
2022/05/22 07:32:31;;;;;;;10.17;3.10;;;20.40;99.90;;;;;;5038330;28;20505;-74
2022/05/22 07:34:59;;;;;;;7.10;3.37;;;20.50;99.90;;;;;;5030843;28;20479;-74
2022/05/22 07:37:26;;;;;;;2.53;2.30;;;20.90;99.90;;;;;;5030611;28;20467;-75
2022/05/22 07:39:56;;;;;;;6.63;2.30;;;21.70;99.90;;;;;;5033103;28;20559;-73
2022/05/22 07:42:23;;;;;;;3.57;2.20;;;22.20;99.90;;;;;;5041501;28;20487;-75
2022/05/22 07:44:49;;;;;;;3.60;1.83;;;22.30;99.90;;;;;;5035508;28;20455;-74
2022/05/22 07:47:17;;;;;;;6.33;2.27;;;21.50;99.90;;;;;;5036812;28;20464;-74
2022/05/22 07:52:29;;;;;;;4.53;2.37;;;21.70;99.90;;;;;;5035692;28;20530;-73
2022/05/22 07:54:57;;;;;;;3.40;2.17;;;22.10;99.90;;;;;;5034705;28;20559;-73
2022/05/22 07:57:24;;;;;;;3.90;2.40;;;22.00;99.90;;;;;;5043622;28;20501;-74
2022/05/22 07:59:50;;;;;;;7.33;2.30;;;22.60;99.90;;;;;;5040029;28;20515;-74
2022/05/22 08:02:18;;;;;;;3.20;2.27;;;22.90;99.90;;;;;;5035672;28;20509;-74
2022/05/22 08:04:58;;;;;;;2.10;1.90;;;23.20;99.90;;;;;;5035435;28;20455;-73
2022/05/22 08:07:24;;;;;;;7.37;1.90;;;23.70;99.90;;;;;;5040956;28;20558;-74
2022/05/22 08:09:52;;;;;;;6.33;1.83;;;24.30;99.90;;;;;;5043141;28;20852;-74
2022/05/22 08:12:19;;;;;;;2.13;1.93;;;24.20;99.90;;;;;;5041969;28;21007;-74
2022/05/22 08:14:46;;;;;;;4.40;2.13;;;24.40;99.90;;;;;;5043326;28;20489;-74
2022/05/22 08:17:15;;;;;;;5.20;2.00;;;24.80;99.90;;;;;;5042587;28;20549;-74
2022/05/22 08:19:42;;;;;;;3.30;1.70;;;25.20;99.90;;;;;;5037693;28;20464;-73
2022/05/22 08:22:22;;;;;;;6.67;2.23;;;25.60;99.90;;;;;;5042456;28;20592;-73
2022/05/22 08:24:48;;;;;;;5.13;2.07;;;25.90;99.90;;;;;;5042882;28;20485;-75
2022/05/22 08:27:18;;;;;;;2.40;1.80;;;25.40;99.90;;;;;;5039723;28;20471;-74
2022/05/22 08:29:45;;;;;;;19.13;3.03;;;25.10;99.90;;;;;;5037408;28;20461;-75
2022/05/22 08:32:12;;;;;;;4.10;2.07;;;25.20;99.90;;;;;;5041244;28;20508;-74
2022/05/22 08:34:40;;;;;;;2.23;1.73;;;25.30;98.70;;;;;;5043013;28;20544;-74
2022/05/22 08:37:06;;;;;;;3.90;1.97;;;25.40;99.60;;;;;;5036661;28;20458;-74
2022/05/22 08:39:34;;;;;;;6.47;2.40;;;25.50;99.90;;;;;;5043507;28;20631;-73
2022/05/22 08:42:08;;;;;;;7.97;2.37;;;25.70;97.90;;;;;;5042661;28;21109;-75
2022/05/22 08:44:38;;;;;;;4.10;2.03;;;25.60;97.60;;;;;;5036348;28;20462;-75
2022/05/22 08:47:13;;;;;;;5.50;3.80;;;25.10;98.80;;;;;;5040268;28;20466;-74
2022/05/22 08:49:43;;;;;;;5.10;2.13;;;25.50;98.50;;;;;;5037180;28;20459;-74
2022/05/22 08:52:17;;;;;;;2.37;1.90;;;25.50;97.30;;;;;;5043629;28;20480;-74
2022/05/22 08:54:52;;;;;;;7.67;2.90;;;25.70;97.10;;;;;;5036581;28;20490;-74
2022/05/22 09:00:09;;;;;;;3.30;1.90;;;25.40;97.80;;;;;;5028909;28;20515;-74
2022/05/22 09:02:42;;;;;;;3.17;1.90;;;25.90;95.90;;;;;;5030390;28;20497;-75
2022/05/22 09:05:11;;;;;;;9.30;2.90;;;26.60;94.40;;;;;;5027299;28;20861;-74
2022/05/22 09:07:48;;;;;;;2.30;2.00;;;26.60;92.90;;;;;;5021867;28;20844;-74
2022/05/22 09:10:20;;;;;;;6.73;2.00;;;26.70;94.20;;;;;;5027491;28;20455;-74
2022/05/22 09:13:07;;;;;;;6.37;3.37;;;27.40;93.40;;;;;;5029636;28;20485;-73
2022/05/22 09:15:44;;;;;;;4.23;2.63;;;27.20;92.30;;;;;;5027806;28;20633;-74
2022/05/22 09:18:17;;;;;;;7.60;3.20;;;27.50;91.60;;;;;;5028859;28;20557;-73
2022/05/22 09:20:54;;;;;;;10.23;3.10;;;27.30;91.60;;;;;;5030251;28;20979;-73
2022/05/22 09:23:35;;;;;;;7.50;3.10;;;28.10;89.40;;;;;;5028432;28;20462;-74
2022/05/22 09:26:07;;;;;;;2.97;2.27;;;28.10;89.40;;;;;;5033307;28;20462;-74
2022/05/22 09:28:49;;;;;;;3.53;2.43;;;28.50;88.30;;;;;;5030841;28;20850;-73
2022/05/22 09:31:25;;;;;;;3.90;3.50;;;27.70;87.50;;;;;;5036468;28;20487;-73
2022/05/22 09:34:03;;;;;;;4.43;3.57;;;27.30;89.80;;;;;;5026827;28;20476;-74
2022/05/22 09:36:42;;;;;;;4.40;2.30;;;28.20;86.20;;;;;;5029604;28;20466;-74
2022/05/22 09:39:22;;;;;;;4.77;2.57;;;28.70;83.80;;;;;;5032512;28;20466;-73
2022/05/22 09:42:03;;;;;;;11.10;3.20;;;29.20;83.60;;;;;;5028802;28;21243;-74
2022/05/22 09:44:46;;;;;;;5.63;2.70;;;29.00;83.90;;;;;;5038804;22;21089;-72
2022/05/22 09:47:29;;;;;;;3.33;2.70;;;28.60;84.80;;;;;;5044692;28;20558;-71
2022/05/22 09:50:16;;;;;;;8.63;2.53;;;28.20;84.20;;;;;;5030302;28;21392;-72
2022/05/22 09:52:52;;;;;;;8.07;3.03;;;28.50;85.30;;;;;;5037703;28;20459;-72
2022/05/22 09:55:32;;;;;;;4.03;3.63;;;28.70;83.40;;;;;;5039817;28;20482;-73
2022/05/22 09:58:15;;;;;;;2.80;2.40;;;28.50;83.70;;;;;;5033703;28;20964;-72
2022/05/22 10:00:48;;;;;;;8.23;3.03;;;28.00;84.30;;;;;;5020769;28;20547;-72
2022/05/22 10:03:22;;;;;;;5.50;3.40;;;28.60;83.00;;;;;;5031267;28;20479;-71
2022/05/22 10:05:57;;;;;;;3.43;3.07;;;28.60;81.70;;;;;;5032006;28;20561;-71
2022/05/22 10:08:36;;;;;;;6.33;3.30;;;28.40;81.20;;;;;;5033155;28;20467;-71
2022/05/22 10:11:11;;;;;;;4.43;3.03;;;28.90;79.30;;;;;;5039974;28;20467;-71
2022/05/22 10:13:55;;;;;;;5.30;3.33;;;28.40;79.50;;;;;;5040260;28;20831;-73
2022/05/22 10:16:35;;;;;;;7.87;4.80;;;28.50;81.70;;;;;;5031935;28;20463;-71
2022/05/22 10:19:17;;;;;;;10.50;3.83;;;27.50;79.60;;;;;;5033529;28;20974;-70
2022/05/22 10:21:49;;;;;;;4.27;3.50;;;27.10;85.50;;;;;;5035852;28;20975;-71
2022/05/22 10:24:33;;;;;;;7.50;3.83;;;27.30;82.50;;;;;;5029133;28;20514;-71
2022/05/22 10:27:20;;;;;;;16.03;3.63;;;27.80;82.90;;;;;;5019365;28;20525;-70
2022/05/22 10:29:53;;;;;;;5.40;3.33;;;28.60;81.40;;;;;;5018655;28;20458;-71
2022/05/22 10:32:26;;;;;;;12.37;4.43;;;28.00;79.20;;;;;;5023260;28;20505;-70
2022/05/22 10:34:58;;;;;;;5.70;3.57;;;25.90;82.20;;;;;;5017034;28;20501;-71
2022/05/22 10:37:30;;;;;;;7.83;3.47;;;25.30;85.90;;;;;;5035551;28;20494;-70
2022/05/22 10:39:58;;;;;;;11.30;4.10;;;25.40;88.50;;;;;;5030251;28;20920;-71
2022/05/22 10:42:46;;;;;;;6.10;3.43;;;25.50;89.60;;;;;;5034246;28;20470;-71
2022/05/22 10:45:21;;;;;;;3.70;2.87;;;27.00;86.40;;;;;;5028051;28;20451;-72
2022/05/22 10:47:49;;;;;;;5.73;3.23;;;27.70;83.10;;;;;;5025853;28;20732;-71
2022/05/22 10:50:23;;;;;;;6.27;3.40;;;27.70;82.10;;;;;;5028662;28;20497;-71
2022/05/22 10:52:50;;;;;;;9.53;3.77;;;26.90;81.20;;;;;;5028935;28;20824;-71
2022/05/22 10:55:22;;;;;;;6.83;3.60;;;26.40;85.70;;;;;;5036321;28;20486;-71
2022/05/22 10:57:56;;;;;;;6.03;3.33;;;26.70;81.80;;;;;;5038965;28;20924;-70
2022/05/22 11:00:26;;;;;;;4.50;3.13;;;26.60;84.70;;;;;;5028268;28;20461;-71
2022/05/22 11:02:53;;;;;;;6.00;3.23;;;27.20;83.70;;;;;;5031727;28;20478;-71
2022/05/22 11:05:22;;;;;;;5.00;3.70;;;28.50;80.80;;;;;;5032986;28;20467;-70
2022/05/22 11:07:51;;;;;;;6.73;4.73;;;29.80;76.90;;;;;;5030817;28;20459;-71
2022/05/22 11:10:23;;;;;;;6.80;3.33;;;30.50;75.30;;;;;;5033717;28;20467;-71
2022/05/22 11:13:01;;;;;;;6.80;3.10;;;30.00;72.80;;;;;;5022480;28;20455;-70
2022/05/22 11:15:31;;;;;;;4.37;3.97;;;29.80;71.50;;;;;;5034428;28;20548;-71
2022/05/22 11:18:05;;;;;;;5.03;2.87;;;31.00;71.40;;;;;;5033045;28;20835;-71
2022/05/22 11:20:33;;;;;;;5.80;4.20;;;31.50;69.60;;;;;;5028295;28;20467;-70
2022/05/22 11:23:09;;;;;;;6.00;3.70;;;30.60;70.60;;;;;;5025915;28;21047;-70
2022/05/22 11:25:43;;;;;;;8.30;3.70;;;30.70;68.50;;;;;;5036791;28;20496;-72
2022/05/22 11:28:29;;;;;;;5.60;3.80;;;31.20;65.50;;;;;;5035137;28;20462;-72
2022/05/22 11:31:05;;;;;;;5.10;3.17;;;31.30;64.60;;;;;;5037360;28;22416;-72
2022/05/22 11:33:46;;;;;;;5.43;3.20;;;31.20;66.70;;;;;;5045225;28;20637;-72
2022/05/22 11:36:31;;;;;;;6.77;3.07;;;31.40;64.80;;;;;;5038525;28;21010;-70
2022/05/22 11:39:15;;;;;;;4.80;2.70;;;30.90;66.90;;;;;;5034222;28;20545;-71
2022/05/22 11:41:47;;;;;;;4.73;3.60;;;31.40;65.90;;;;;;5029510;28;20616;-72
2022/05/22 11:44:52;;;;;;;4.63;3.27;;;30.00;68.30;;;;;;5039867;28;20994;-74
2022/05/22 11:47:31;;;;;;;7.60;4.00;;;30.00;68.40;;;;;;5026270;28;20519;-73
2022/05/22 11:50:07;;;;;;;3.80;3.10;;;30.40;65.60;;;;;;5026463;28;20539;-73
2022/05/22 11:52:55;;;;;;;11.30;4.23;;;30.50;64.50;;;;;;5033300;28;20463;-70
2022/05/22 11:55:30;;;;;;;9.70;5.30;;;30.80;63.10;;;;;;5035354;28;20490;-70
2022/05/22 11:58:18;;;;;;;8.80;3.80;;;31.30;61.20;;;;;;5038764;28;20474;-71
2022/05/22 12:00:53;;;;;;;3.97;3.40;;;31.50;61.10;;;;;;5023866;28;20458;-72
2022/05/22 12:03:46;;;;;;;5.93;4.73;;;32.00;60.00;;;;;;5031051;28;21033;-72
2022/05/22 12:06:22;;;;;;;6.57;3.23;;;31.90;59.20;;;;;;5034828;28;20470;-72
2022/05/22 12:09:10;;;;;;;3.37;2.70;;;32.00;61.50;;;;;;5036042;28;20963;-72
2022/05/22 12:11:42;;;;;;;4.30;3.77;;;32.80;60.20;;;;;;5031075;28;20471;-71
2022/05/22 12:14:21;;;;;;;3.93;3.47;;;32.40;58.70;;;;;;5030387;28;20485;-71
2022/05/22 12:16:53;;;;;;;5.30;3.90;;;31.10;59.20;;;;;;5035123;28;20544;-71
2022/05/22 12:19:32;;;;;;;4.30;3.33;;;31.10;59.80;;;;;;5027830;28;20499;-70
2022/05/22 12:22:12;;;;;;;5.03;4.30;;;30.90;58.80;;;;;;5026794;28;20466;-71
2022/05/22 12:24:47;;;;;;;7.00;3.47;;;30.20;60.80;;;;;;5032505;28;20481;-72
2022/05/22 12:27:25;;;;;;;15.73;3.57;;;30.90;60.80;;;;;;5028808;28;20462;-71
2022/05/22 12:30:03;;;;;;;6.07;3.80;;;31.30;61.50;;;;;;5035569;28;20852;-72
2022/05/22 12:32:33;;;;;;;6.17;3.63;;;30.30;59.50;;;;;;5032119;28;20524;-71
2022/05/22 12:35:01;;;;;;;8.07;4.00;;;30.10;59.70;;;;;;5035764;28;21096;-71
2022/05/22 12:37:35;;;;;;;5.43;3.80;;;29.30;61.70;;;;;;5032419;28;21894;-70
2022/05/22 12:40:13;;;;;;;8.30;4.00;;;28.80;64.50;;;;;;5022849;28;21041;-71
2022/05/22 12:42:48;;;;;;;5.63;3.30;;;28.60;64.20;;;;;;5035528;28;20514;-71
2022/05/22 12:45:15;;;;;;;6.37;3.90;;;29.90;65.70;;;;;;5022909;28;20474;-72
2022/05/22 12:47:43;;;;;;;7.20;3.63;;;31.00;60.40;;;;;;5027834;28;20484;-71
2022/05/22 12:50:13;;;;;;;6.23;3.20;;;30.20;58.90;;;;;;5024612;28;20528;-71
2022/05/22 12:52:41;;;;;;;13.10;4.60;;;30.70;59.00;;;;;;5030266;28;20458;-71
2022/05/22 12:55:22;;;;;;;12.40;5.97;;;30.80;59.90;;;;;;5039779;28;27363;-71
2022/05/22 12:57:56;;;;;;;12.80;5.70;;;31.50;57.60;;;;;;5029045;28;20489;-71
2022/05/22 13:00:36;;;;;;;5.90;4.53;;;30.70;57.90;;;;;;5031306;28;20993;-71
2022/05/22 13:03:12;;;;;;;7.50;4.10;;;30.90;57.70;;;;;;5025743;28;20873;-71
2022/05/22 13:05:42;;;;;;;4.90;3.83;;;31.90;58.10;;;;;;5021953;28;20537;-71
2022/05/22 13:08:23;;;;;;;7.20;4.57;;;32.50;56.40;;;;;;5026678;28;23674;-72
2022/05/22 13:10:53;;;;;;;3.83;3.40;;;33.00;58.30;;;;;;5033028;28;20466;-71